createdAt,value
2017-10-02T00:00:57.048Z,99.90
2017-10-02T00:03:25.345Z,99.90
2017-10-02T00:05:54.406Z,99.90
2017-10-02T00:08:23.581Z,99.90
2017-10-02T00:10:51.883Z,99.90
2017-10-02T00:13:20.182Z,99.50
2017-10-02T00:15:48.535Z,99.90
2017-10-02T00:18:16.832Z,98.40
2017-10-02T00:20:45.137Z,99.10
2017-10-02T00:23:13.485Z,98.50
2017-10-02T00:25:41.792Z,98.40
2017-10-02T00:28:10.129Z,98.60
2017-10-02T00:30:39.229Z,96.70
2017-10-02T00:33:07.528Z,96.70
2017-10-02T00:35:35.842Z,95.10
2017-10-02T00:38:04.966Z,94.30
2017-10-02T00:40:33.260Z,95.10
2017-10-02T00:43:01.563Z,95.10
2017-10-02T00:45:29.909Z,94.80
2017-10-02T00:47:59.048Z,94.90
2017-10-02T00:50:28.148Z,95.40
2017-10-02T00:52:56.444Z,94.60
2017-10-02T00:55:24.868Z,94.30
2017-10-02T00:57:53.205Z,94.60
2017-10-02T01:00:22.262Z,95.00
2017-10-02T01:02:50.565Z,95.00
2017-10-02T01:05:18.869Z,95.00
2017-10-02T01:07:47.173Z,95.20
2017-10-02T01:10:15.499Z,95.40
2017-10-02T01:12:43.800Z,96.20
2017-10-02T01:15:12.136Z,95.90
2017-10-02T01:17:40.429Z,95.80
2017-10-02T01:20:09.525Z,95.60
2017-10-02T01:22:38.038Z,95.60
2017-10-02T01:25:06.342Z,95.60
2017-10-02T01:27:34.673Z,95.80
2017-10-02T01:30:03.766Z,96.00
2017-10-02T01:32:32.093Z,95.30
2017-10-02T01:35:01.181Z,95.10
2017-10-02T01:37:29.481Z,95.10
2017-10-02T01:39:57.797Z,95.30
2017-10-02T01:42:26.116Z,95.60
2017-10-02T01:44:54.445Z,95.70
2017-10-02T01:47:23.506Z,95.70
2017-10-02T01:49:51.801Z,95.70
2017-10-02T01:52:20.120Z,96.70
2017-10-02T01:54:48.457Z,96.80
2017-10-02T01:57:16.800Z,97.20
2017-10-02T01:59:45.096Z,96.80
2017-10-02T02:02:14.182Z,97.70
2017-10-02T02:04:43.280Z,98.80
2017-10-02T02:07:11.574Z,97.90
2017-10-02T02:09:39.865Z,98.70
2017-10-02T02:12:08.946Z,99.20
2017-10-02T02:14:38.251Z,96.40
2017-10-02T02:17:06.613Z,96.50
2017-10-02T02:19:34.942Z,96.90
2017-10-02T02:22:03.440Z,96.30
2017-10-02T02:24:31.768Z,97.30
2017-10-02T02:27:00.057Z,94.50
2017-10-02T02:29:28.351Z,94.30
2017-10-02T02:31:56.684Z,94.30
2017-10-02T02:34:24.990Z,93.70
2017-10-02T02:36:53.284Z,94.00
2017-10-02T02:39:21.590Z,93.20
2017-10-02T02:41:56.416Z,93.90
2017-10-02T02:44:24.753Z,94.10
2017-10-02T02:46:53.049Z,93.60
2017-10-02T02:49:21.372Z,92.10
2017-10-02T02:51:49.686Z,92.20
2017-10-02T02:54:17.981Z,91.00
2017-10-02T02:56:46.333Z,91.00
2017-10-02T02:59:14.648Z,91.90
2017-10-02T03:01:43.868Z,91.90
2017-10-02T03:04:12.191Z,91.50
2017-10-02T03:06:40.581Z,91.50
2017-10-02T03:09:08.909Z,91.80
2017-10-02T03:11:37.205Z,91.40
2017-10-02T03:14:05.514Z,91.50
2017-10-02T03:16:33.845Z,92.10
2017-10-02T03:19:02.939Z,92.50
2017-10-02T03:21:31.541Z,92.50
2017-10-02T03:23:59.869Z,92.30
2017-10-02T03:26:28.157Z,92.20
2017-10-02T03:28:56.449Z,92.40
2017-10-02T03:31:25.548Z,93.10
2017-10-02T03:33:54.646Z,93.20
2017-10-02T03:36:22.962Z,93.20
2017-10-02T03:38:52.029Z,92.90
2017-10-02T03:41:20.358Z,92.90
2017-10-02T03:43:48.670Z,93.20
2017-10-02T03:46:16.989Z,93.50
2017-10-02T03:48:45.613Z,93.70
2017-10-02T03:51:13.915Z,93.30
2017-10-02T03:53:43.777Z,93.90
2017-10-02T03:56:12.107Z,93.90
2017-10-02T03:58:40.406Z,93.40
2017-10-02T04:01:09.500Z,93.80
2017-10-02T04:03:37.789Z,93.70
2017-10-02T04:06:06.082Z,94.10
2017-10-02T04:08:34.497Z,94.20
2017-10-02T04:11:02.872Z,94.10
2017-10-02T04:13:31.188Z,93.70
2017-10-02T04:15:59.476Z,93.50
2017-10-02T04:18:27.807Z,93.70
2017-10-02T04:20:56.143Z,94.20
2017-10-02T04:23:24.441Z,95.20
2017-10-02T04:25:52.777Z,95.20
2017-10-02T04:28:21.118Z,95.40
2017-10-02T04:30:49.412Z,95.00
2017-10-02T04:33:17.825Z,95.30
2017-10-02T04:35:46.117Z,95.40
2017-10-02T04:38:15.198Z,96.20
2017-10-02T04:40:44.569Z,96.40
2017-10-02T04:43:12.877Z,96.40
2017-10-02T04:45:41.213Z,96.50
2017-10-02T04:48:09.506Z,97.80
2017-10-02T04:50:37.801Z,96.60
2017-10-02T04:53:06.951Z,96.40
2017-10-02T04:55:35.281Z,96.40
2017-10-02T04:58:03.568Z,96.60
2017-10-02T05:00:31.917Z,96.90
2017-10-02T05:03:00.236Z,97.10
2017-10-02T05:05:28.539Z,96.60
2017-10-02T05:07:56.875Z,96.90
2017-10-02T05:10:25.183Z,96.70
2017-10-02T05:12:53.513Z,96.60
2017-10-02T05:15:22.604Z,96.70
2017-10-02T05:17:50.912Z,96.70
2017-10-02T05:20:19.229Z,97.10
2017-10-02T05:22:47.521Z,97.00
2017-10-02T05:25:15.841Z,97.60
2017-10-02T05:27:44.137Z,98.60
2017-10-02T05:30:12.461Z,98.80
2017-10-02T05:32:40.757Z,99.90
2017-10-02T05:35:09.066Z,99.90
2017-10-02T05:37:38.164Z,99.90
2017-10-02T05:40:06.496Z,99.90
2017-10-02T05:42:35.558Z,99.90
2017-10-02T05:45:03.854Z,99.90
2017-10-02T05:47:32.304Z,99.90
2017-10-02T05:50:00.861Z,99.90
2017-10-02T05:52:29.194Z,99.90
2017-10-02T05:54:58.257Z,99.90
2017-10-02T05:57:27.352Z,99.90
2017-10-02T05:59:55.643Z,99.90
2017-10-02T06:02:23.955Z,99.90
2017-10-02T06:04:52.331Z,99.90
2017-10-02T06:07:20.629Z,99.90
2017-10-02T06:09:49.704Z,99.90
2017-10-02T06:12:18.107Z,99.90
2017-10-02T06:14:47.276Z,99.90
2017-10-02T06:17:15.568Z,99.90
2017-10-02T06:19:43.905Z,99.90
2017-10-02T06:22:12.241Z,99.90
2017-10-02T06:24:41.305Z,99.90
2017-10-02T06:27:10.432Z,99.90
2017-10-02T06:29:38.754Z,99.90
2017-10-02T06:32:07.077Z,99.90
2017-10-02T06:34:35.436Z,99.90
2017-10-02T06:37:04.535Z,99.90
2017-10-02T06:39:32.833Z,99.90
2017-10-02T06:42:01.280Z,99.90
2017-10-02T06:44:29.581Z,99.90
2017-10-02T06:46:58.685Z,99.90
2017-10-02T06:49:26.973Z,99.90
2017-10-02T06:51:55.308Z,99.90
2017-10-02T06:54:24.443Z,99.90
2017-10-02T06:56:52.736Z,99.90
2017-10-02T06:59:21.801Z,99.90
2017-10-02T07:01:50.905Z,99.90
2017-10-02T07:04:19.212Z,99.90
2017-10-02T07:06:48.163Z,99.90
2017-10-02T07:09:17.369Z,99.90
2017-10-02T07:11:45.983Z,99.90
2017-10-02T07:14:14.302Z,99.90
2017-10-02T07:16:42.599Z,99.90
2017-10-02T07:19:10.923Z,99.90
2017-10-02T07:21:39.242Z,99.90
2017-10-02T07:24:08.390Z,99.90
2017-10-02T07:26:36.725Z,99.90
2017-10-02T07:29:05.053Z,99.90
2017-10-02T07:31:33.354Z,99.90
2017-10-02T07:34:01.707Z,99.90
2017-10-02T07:36:30.004Z,99.90
2017-10-02T07:38:59.106Z,99.90
2017-10-02T07:41:27.396Z,99.90
2017-10-02T07:43:55.704Z,99.90
2017-10-02T07:46:24.782Z,99.90
2017-10-02T07:48:53.850Z,99.90
2017-10-02T07:51:22.934Z,99.90
2017-10-02T07:53:51.990Z,99.90
2017-10-02T07:56:20.387Z,99.90
2017-10-02T07:58:48.683Z,99.90
2017-10-02T08:01:17.008Z,99.90
2017-10-02T08:03:45.305Z,99.90
2017-10-02T08:06:13.633Z,99.90
2017-10-02T08:08:41.959Z,99.90
2017-10-02T08:11:10.324Z,99.90
2017-10-02T08:13:38.649Z,99.90
2017-10-02T08:16:06.981Z,99.90
2017-10-02T08:18:36.041Z,99.90
2017-10-02T08:21:04.349Z,99.90
2017-10-02T08:23:32.885Z,99.90
2017-10-02T08:26:01.369Z,99.90
2017-10-02T08:28:30.494Z,99.90
2017-10-02T08:30:58.786Z,99.90
2017-10-02T08:33:27.873Z,99.90
2017-10-02T08:35:56.190Z,99.90
2017-10-02T08:38:26.308Z,99.90
2017-10-02T08:40:55.411Z,99.90
2017-10-02T08:43:23.718Z,99.90
2017-10-02T08:45:52.061Z,99.90
2017-10-02T08:48:21.155Z,99.90
2017-10-02T08:50:49.474Z,99.90
2017-10-02T08:53:18.541Z,99.90
2017-10-02T08:55:47.636Z,99.90
2017-10-02T08:58:15.926Z,99.90
2017-10-02T09:00:44.229Z,99.90
2017-10-02T09:03:13.329Z,99.90
2017-10-02T09:05:41.628Z,99.90
2017-10-02T09:08:09.950Z,99.90
2017-10-02T09:10:38.240Z,99.90
2017-10-02T09:13:06.596Z,99.90
2017-10-02T09:15:34.894Z,99.90
2017-10-02T09:18:03.198Z,99.90
2017-10-02T09:20:31.522Z,99.90
2017-10-02T09:23:00.606Z,99.90
2017-10-02T09:25:28.945Z,99.90
2017-10-02T09:27:58.084Z,99.90
2017-10-02T09:30:28.124Z,99.90
2017-10-02T09:32:56.867Z,99.90
2017-10-02T09:35:25.193Z,99.90
2017-10-02T09:37:53.539Z,99.90
2017-10-02T09:40:22.598Z,99.90
2017-10-02T09:42:50.895Z,99.90
2017-10-02T09:45:19.214Z,99.90
2017-10-02T09:47:47.505Z,99.90
2017-10-02T09:50:15.831Z,99.90
2017-10-02T09:52:44.187Z,99.90
2017-10-02T09:55:13.286Z,99.90
2017-10-02T09:57:41.606Z,99.90
2017-10-02T10:00:09.924Z,99.90
2017-10-02T10:02:38.245Z,99.90
2017-10-02T10:05:07.327Z,99.90
2017-10-02T10:07:36.478Z,99.90
2017-10-02T10:10:04.802Z,99.90
2017-10-02T10:12:33.133Z,99.90
2017-10-02T10:15:01.437Z,99.90
2017-10-02T10:17:29.757Z,99.90
2017-10-02T10:19:58.059Z,99.90
2017-10-02T10:22:27.153Z,99.90
2017-10-02T10:24:56.219Z,99.90
2017-10-02T10:27:26.098Z,99.90
2017-10-02T10:29:54.392Z,99.90
2017-10-02T10:32:22.691Z,99.90
2017-10-02T10:34:51.021Z,99.90
2017-10-02T10:37:19.346Z,99.90
2017-10-02T10:39:47.641Z,99.90
2017-10-02T10:42:15.925Z,99.90
2017-10-02T10:44:45.013Z,99.90
2017-10-02T10:47:13.316Z,99.90
2017-10-02T10:49:41.642Z,99.90
2017-10-02T10:52:09.973Z,99.90
2017-10-02T10:54:38.306Z,99.90
2017-10-02T10:57:06.617Z,99.90
2017-10-02T10:59:34.905Z,99.90
2017-10-02T11:02:03.251Z,99.90
2017-10-02T11:04:32.321Z,99.90
2017-10-02T11:07:01.400Z,99.90
2017-10-02T11:09:29.716Z,99.90
2017-10-02T11:11:58.066Z,99.90
2017-10-02T11:14:27.125Z,99.90
2017-10-02T11:16:55.425Z,99.90
2017-10-02T11:19:23.806Z,99.90
2017-10-02T11:21:52.119Z,99.90
2017-10-02T11:24:21.226Z,99.90
2017-10-02T11:26:49.697Z,99.90
2017-10-02T11:29:18.035Z,99.90
2017-10-02T11:31:46.369Z,99.90
2017-10-02T11:34:14.693Z,99.90
2017-10-02T11:36:43.021Z,99.90
2017-10-02T11:39:11.344Z,99.90
2017-10-02T11:41:39.637Z,99.90
2017-10-02T11:44:08.061Z,99.90
2017-10-02T11:46:36.377Z,99.90
2017-10-02T11:49:05.463Z,99.90
2017-10-02T11:51:34.565Z,99.90
2017-10-02T11:54:02.898Z,99.90
2017-10-02T11:56:32.194Z,99.90
2017-10-02T11:59:00.526Z,99.90
2017-10-02T12:01:28.885Z,99.90
2017-10-02T12:03:57.194Z,99.90
2017-10-02T12:06:26.256Z,99.90
2017-10-02T12:08:55.365Z,99.90
2017-10-02T12:11:23.662Z,99.90
2017-10-02T12:13:51.965Z,99.90
2017-10-02T12:16:20.292Z,99.90
2017-10-02T12:18:48.603Z,99.90
2017-10-02T12:21:16.949Z,99.90
2017-10-02T12:23:45.274Z,99.90
2017-10-02T12:26:13.575Z,99.90
2017-10-02T12:28:41.906Z,99.90
2017-10-02T12:31:10.482Z,99.90
2017-10-02T12:33:38.804Z,99.90
2017-10-02T12:36:07.109Z,99.90
2017-10-02T12:38:35.452Z,99.90
2017-10-02T12:41:03.744Z,99.90
2017-10-02T12:43:32.048Z,99.90
2017-10-02T12:46:00.421Z,99.90
2017-10-02T12:48:28.722Z,99.90
2017-10-02T12:50:57.154Z,99.90
2017-10-02T12:53:25.457Z,99.90
2017-10-02T12:55:53.752Z,99.90
2017-10-02T12:58:22.142Z,99.90
2017-10-02T13:00:50.505Z,99.90
2017-10-02T13:03:18.809Z,99.90
2017-10-02T13:05:47.132Z,99.90
2017-10-02T13:08:15.497Z,99.90
2017-10-02T13:10:43.807Z,99.90
2017-10-02T13:13:12.157Z,99.90
2017-10-02T13:15:40.477Z,99.90
2017-10-02T13:18:08.792Z,99.90
2017-10-02T13:20:37.129Z,99.90
2017-10-02T13:23:05.465Z,99.90
2017-10-02T13:25:33.764Z,99.90
2017-10-02T13:28:02.874Z,99.90
2017-10-02T13:30:32.193Z,99.90
2017-10-02T13:33:00.521Z,99.90
2017-10-02T13:35:28.830Z,99.90
2017-10-02T13:37:57.928Z,99.90
2017-10-02T13:40:26.254Z,99.90
2017-10-02T13:42:54.574Z,99.90
2017-10-02T13:45:22.877Z,99.90
2017-10-02T13:47:51.986Z,99.90
2017-10-02T13:50:20.294Z,99.90
2017-10-02T13:52:48.606Z,99.90
2017-10-02T13:55:16.942Z,99.90
2017-10-02T13:57:45.276Z,99.90
2017-10-02T14:00:13.569Z,99.90
2017-10-02T14:02:41.887Z,99.90
2017-10-02T14:05:10.212Z,99.90
2017-10-02T14:07:38.505Z,99.90
2017-10-02T14:10:06.845Z,99.90
2017-10-02T14:12:35.161Z,99.90
2017-10-02T14:15:03.495Z,99.90
2017-10-02T14:17:32.663Z,99.90
2017-10-02T14:20:02.536Z,99.90
2017-10-02T14:22:30.854Z,99.90
2017-10-02T14:25:00.352Z,99.90
2017-10-02T14:27:28.672Z,99.90
2017-10-02T14:29:56.987Z,99.90
2017-10-02T14:32:25.320Z,99.90
2017-10-02T14:34:53.624Z,99.90
2017-10-02T14:37:21.926Z,99.90
2017-10-02T14:39:50.252Z,99.90
2017-10-02T14:42:18.582Z,99.90
2017-10-02T14:44:46.914Z,99.90
2017-10-02T14:47:15.222Z,99.90
2017-10-02T14:49:43.525Z,99.90
2017-10-02T14:52:12.691Z,99.90
2017-10-02T14:54:41.766Z,99.90
2017-10-02T14:57:10.118Z,99.90
2017-10-02T14:59:38.422Z,99.90
2017-10-02T15:02:06.751Z,99.90
2017-10-02T15:04:35.082Z,99.90
2017-10-02T15:07:04.138Z,99.90
2017-10-02T15:09:33.233Z,99.90
2017-10-02T15:12:01.529Z,99.90
2017-10-02T15:14:29.860Z,99.90
2017-10-02T15:16:58.165Z,99.90
2017-10-02T15:19:27.285Z,99.90
2017-10-02T15:24:35.490Z,99.90
2017-10-02T15:27:03.818Z,99.90
2017-10-02T15:29:32.233Z,99.90
2017-10-02T15:32:00.537Z,99.90
2017-10-02T15:34:29.605Z,99.90
2017-10-02T15:36:58.684Z,99.90
2017-10-02T15:39:27.762Z,99.90
2017-10-02T15:41:56.103Z,99.90
2017-10-02T15:44:24.428Z,99.90
2017-10-02T15:46:52.736Z,99.90
2017-10-02T15:49:21.071Z,99.90
2017-10-02T15:51:49.714Z,99.90
2017-10-02T15:54:19.396Z,99.90
2017-10-02T15:56:47.766Z,99.90
2017-10-02T15:59:16.109Z,99.90
2017-10-02T16:01:44.401Z,99.90
2017-10-02T16:04:13.491Z,99.90
2017-10-02T16:06:41.837Z,99.90
2017-10-02T16:09:10.135Z,99.90
2017-10-02T16:11:38.474Z,99.90
2017-10-02T16:14:06.784Z,99.90
2017-10-02T16:16:35.081Z,99.90
2017-10-02T16:19:03.429Z,99.90
2017-10-02T16:21:31.741Z,99.90
2017-10-02T16:24:00.078Z,99.90
2017-10-02T16:26:28.414Z,99.90
2017-10-02T16:28:56.753Z,99.90
2017-10-02T16:31:25.080Z,99.90
2017-10-02T16:33:54.170Z,99.90
2017-10-02T16:36:22.489Z,99.90
2017-10-02T16:38:51.161Z,99.90
2017-10-02T16:41:20.246Z,99.90
2017-10-02T16:43:48.549Z,99.90
2017-10-02T16:46:16.877Z,99.90
2017-10-02T16:48:45.249Z,99.90
2017-10-02T16:51:13.607Z,99.90
2017-10-02T16:53:41.929Z,99.90
2017-10-02T16:56:10.278Z,99.90
2017-10-02T16:58:38.606Z,99.90
2017-10-02T17:01:06.949Z,99.90
2017-10-02T17:03:35.249Z,99.90
2017-10-02T17:06:04.305Z,99.90
2017-10-02T17:08:33.412Z,99.90
2017-10-02T17:11:01.740Z,99.90
2017-10-02T17:13:30.126Z,99.90
2017-10-02T17:15:58.511Z,99.90
2017-10-02T17:18:27.606Z,99.90
2017-10-02T17:20:55.901Z,99.90
2017-10-02T17:23:24.430Z,99.90
2017-10-02T17:25:52.760Z,99.90
2017-10-02T17:28:22.134Z,99.90
2017-10-02T17:30:50.681Z,99.90
2017-10-02T17:33:20.143Z,99.90
2017-10-02T17:35:48.460Z,99.90
2017-10-02T17:38:16.758Z,99.90
2017-10-02T17:40:45.864Z,99.90
2017-10-02T17:43:14.157Z,99.90
2017-10-02T17:45:42.511Z,99.90
2017-10-02T17:48:10.805Z,99.90
2017-10-02T17:50:39.108Z,99.90
2017-10-02T17:53:07.432Z,99.90
2017-10-02T17:55:35.770Z,99.90
2017-10-02T17:58:04.073Z,99.90
2017-10-02T18:00:33.221Z,99.90
2017-10-02T18:03:01.579Z,99.90
2017-10-02T18:05:29.868Z,99.90
2017-10-02T18:07:58.174Z,99.90
2017-10-02T18:10:26.500Z,99.90
2017-10-02T18:12:54.814Z,99.90
2017-10-02T18:15:23.430Z,99.90
2017-10-02T18:17:51.741Z,99.90
2017-10-02T18:20:20.067Z,99.90
2017-10-02T18:22:49.951Z,99.90
2017-10-02T18:25:18.288Z,99.90
2017-10-02T18:27:46.599Z,99.90
2017-10-02T18:30:14.911Z,99.90
2017-10-02T18:32:43.992Z,99.90
2017-10-02T18:35:13.054Z,99.90
2017-10-02T18:37:41.393Z,99.90
2017-10-02T18:40:09.715Z,99.90
2017-10-02T18:42:38.017Z,99.90
2017-10-02T18:45:06.361Z,99.90
2017-10-02T19:00:37.917Z,99.90
2017-10-02T19:03:06.891Z,99.90
2017-10-02T19:05:35.351Z,99.90
2017-10-02T19:08:04.450Z,99.90
2017-10-02T19:10:32.754Z,99.90
2017-10-02T19:13:01.124Z,99.90
2017-10-02T19:15:30.266Z,99.90
2017-10-02T19:17:58.572Z,99.90
2017-10-02T19:20:26.902Z,99.90
2017-10-02T19:22:55.325Z,99.90
2017-10-02T19:25:24.398Z,99.90
2017-10-02T19:27:53.519Z,99.90
2017-10-02T19:30:21.831Z,99.90
2017-10-02T19:32:50.177Z,99.90
2017-10-02T19:35:18.502Z,99.90
2017-10-02T19:37:47.578Z,99.90
2017-10-02T19:40:15.944Z,99.90
2017-10-02T19:42:44.238Z,99.90
2017-10-02T19:45:12.556Z,99.90
2017-10-02T19:47:40.925Z,99.90
2017-10-02T19:50:09.226Z,99.90
2017-10-02T19:52:37.528Z,99.90
2017-10-02T19:55:05.860Z,99.90
2017-10-02T19:57:34.178Z,99.90
2017-10-02T20:00:03.323Z,99.90
2017-10-02T20:02:32.409Z,99.90
2017-10-02T20:05:00.700Z,99.90
2017-10-02T20:07:29.609Z,99.90
2017-10-02T20:09:58.128Z,99.90
2017-10-02T20:12:26.745Z,99.90
2017-10-02T20:14:55.233Z,99.90
2017-10-02T20:17:24.290Z,99.90
2017-10-02T20:19:52.621Z,99.90
2017-10-02T20:22:20.964Z,99.90
2017-10-02T20:24:49.293Z,99.90
2017-10-02T20:27:17.608Z,99.90
2017-10-02T20:29:45.937Z,99.90
2017-10-02T20:32:14.227Z,99.90
2017-10-02T20:34:42.539Z,99.90
2017-10-02T20:37:10.886Z,99.90
2017-10-02T20:39:39.185Z,99.90
2017-10-02T20:42:07.545Z,99.90
2017-10-02T20:44:35.845Z,99.90
2017-10-02T20:47:04.140Z,99.90
2017-10-02T20:49:32.603Z,99.90
2017-10-02T20:52:00.925Z,99.90
2017-10-02T20:54:30.012Z,99.90
2017-10-02T20:56:58.362Z,99.90
2017-10-02T20:59:26.697Z,99.90
2017-10-02T21:01:55.780Z,99.90
2017-10-02T21:04:24.123Z,99.90
2017-10-02T21:06:52.464Z,99.90
2017-10-02T21:09:20.762Z,99.90
2017-10-02T21:11:49.092Z,99.90
2017-10-02T21:14:17.428Z,99.90
2017-10-02T21:16:45.726Z,99.90
2017-10-02T21:19:14.107Z,99.90
2017-10-02T21:21:43.201Z,99.90
2017-10-02T21:24:11.506Z,99.90
2017-10-02T21:26:39.805Z,99.90
2017-10-02T21:29:08.160Z,99.90
2017-10-02T21:31:36.452Z,99.90
2017-10-02T21:34:05.537Z,99.90
2017-10-02T21:36:33.863Z,99.90
2017-10-02T21:39:02.210Z,99.90
2017-10-02T21:41:31.374Z,99.90
2017-10-02T21:44:00.481Z,99.90
2017-10-02T21:46:29.037Z,99.90
2017-10-02T21:48:57.341Z,99.90
2017-10-02T21:51:26.449Z,99.90
2017-10-02T21:53:54.763Z,99.90
2017-10-02T21:56:23.088Z,99.90
2017-10-02T21:58:52.160Z,99.90
2017-10-02T22:01:21.293Z,99.90
2017-10-02T22:03:49.593Z,99.90
2017-10-02T22:06:18.658Z,99.90
2017-10-02T22:08:46.980Z,99.90
2017-10-02T22:11:15.315Z,99.90
2017-10-02T22:13:43.679Z,99.90
2017-10-02T22:16:11.992Z,99.90
2017-10-02T22:18:40.288Z,99.90
2017-10-02T22:21:08.623Z,99.90
2017-10-02T22:23:36.976Z,99.90
2017-10-02T22:26:05.330Z,99.90
2017-10-02T22:28:33.655Z,99.90
2017-10-02T22:31:01.978Z,99.90
2017-10-02T22:33:30.285Z,99.90
2017-10-02T22:35:59.378Z,99.90
2017-10-02T22:38:27.702Z,99.90
2017-10-02T22:40:57.207Z,99.90
2017-10-02T22:43:25.514Z,99.90
2017-10-02T22:45:53.832Z,99.90
2017-10-02T22:48:22.170Z,99.90
2017-10-02T22:50:51.046Z,99.90
2017-10-02T22:53:19.446Z,99.90
2017-10-02T22:55:47.755Z,99.90
2017-10-02T22:58:16.088Z,99.90
2017-10-02T23:00:44.395Z,99.90
2017-10-02T23:03:13.458Z,99.90
2017-10-02T23:05:42.549Z,99.90
2017-10-02T23:08:10.852Z,99.90
2017-10-02T23:10:39.947Z,99.90
2017-10-02T23:13:08.295Z,99.90
2017-10-02T23:15:36.599Z,99.90
2017-10-02T23:18:04.921Z,99.90
2017-10-02T23:20:33.264Z,99.90
2017-10-02T23:23:01.568Z,99.90
2017-10-02T23:25:29.865Z,99.90
2017-10-02T23:27:58.193Z,99.90
2017-10-02T23:30:27.257Z,99.90
2017-10-02T23:32:55.868Z,99.90
2017-10-02T23:35:24.190Z,99.90
2017-10-02T23:37:52.533Z,99.90
2017-10-02T23:40:20.922Z,99.90
2017-10-02T23:42:49.778Z,99.90
2017-10-02T23:45:18.097Z,99.90
2017-10-02T23:47:46.419Z,99.90
2017-10-02T23:50:14.773Z,99.90
2017-10-02T23:52:43.083Z,99.90
2017-10-02T23:55:11.378Z,99.90
2017-10-02T23:57:39.721Z,99.90
